createdAt,value
2023-02-28T00:00:48.765Z,2.59
2023-02-28T00:03:17.898Z,2.58
2023-02-28T00:05:46.155Z,2.59
2023-02-28T00:08:14.697Z,2.55
2023-02-28T00:10:43.523Z,2.58
2023-02-28T00:13:12.451Z,2.59
2023-02-28T00:15:40.484Z,2.56
2023-02-28T00:18:08.756Z,2.46
2023-02-28T00:20:36.934Z,2.49
2023-02-28T00:23:05.766Z,2.45
2023-02-28T00:25:33.823Z,2.41
2023-02-28T00:28:02.180Z,2.37
2023-02-28T00:30:31.158Z,2.40
2023-02-28T00:33:00.675Z,2.38
2023-02-28T00:35:29.086Z,2.36
2023-02-28T00:38:02.814Z,2.35
2023-02-28T00:40:31.210Z,2.35
2023-02-28T00:43:01.229Z,2.31
2023-02-28T00:45:29.771Z,2.26
2023-02-28T00:47:57.963Z,2.28
2023-02-28T00:50:26.400Z,2.22
2023-02-28T00:52:55.671Z,2.33
2023-02-28T00:55:24.282Z,2.24
2023-02-28T00:57:53.602Z,2.16
2023-02-28T01:00:23.801Z,2.19
2023-02-28T01:02:52.064Z,2.18
2023-02-28T01:05:20.926Z,2.18
2023-02-28T01:07:49.361Z,2.15
2023-02-28T01:10:23.795Z,2.17
2023-02-28T01:12:52.710Z,2.12
2023-02-28T01:15:20.971Z,2.14
2023-02-28T01:17:49.585Z,2.22
2023-02-28T01:20:18.080Z,2.12
2023-02-28T01:22:46.411Z,2.06
2023-02-28T01:25:17.736Z,1.99
2023-02-28T01:27:46.789Z,1.96
2023-02-28T01:30:15.959Z,2.04
2023-02-28T01:32:44.609Z,2.01
2023-02-28T01:35:12.962Z,2.02
2023-02-28T01:37:42.697Z,1.96
2023-02-28T01:40:12.326Z,1.95
2023-02-28T01:42:41.185Z,1.93
2023-02-28T01:45:22.325Z,1.86
2023-02-28T01:47:54.286Z,1.83
2023-02-28T01:50:27.684Z,1.81
2023-02-28T01:53:00.377Z,1.73
2023-02-28T01:55:31.646Z,1.79
2023-02-28T01:58:04.750Z,1.75
2023-02-28T02:00:33.909Z,1.60
2023-02-28T02:03:10.569Z,1.66
2023-02-28T02:05:41.025Z,1.62
2023-02-28T02:08:14.077Z,1.58
2023-02-28T02:10:46.030Z,1.57
2023-02-28T02:13:36.320Z,1.49
2023-02-28T02:16:22.838Z,1.52
2023-02-28T02:19:06.385Z,1.59
2023-02-28T02:21:40.332Z,1.48
2023-02-28T02:24:38.308Z,1.57
2023-02-28T02:27:20.269Z,1.58
2023-02-28T02:30:17.692Z,1.55
2023-02-28T02:33:05.534Z,1.58
2023-02-28T02:35:51.842Z,1.51
2023-02-28T02:38:27.944Z,1.53
2023-02-28T02:41:19.887Z,1.56
2023-02-28T02:43:53.675Z,1.51
2023-02-28T02:46:34.761Z,1.27
2023-02-28T02:49:06.485Z,1.20
2023-02-28T02:51:35.572Z,1.20
2023-02-28T02:54:09.733Z,1.23
2023-02-28T02:56:40.955Z,1.27
2023-02-28T02:59:11.921Z,1.21
2023-02-28T03:01:44.528Z,1.24
2023-02-28T03:04:16.403Z,1.19
2023-02-28T03:06:44.420Z,1.20
2023-02-28T03:09:12.877Z,1.21
2023-02-28T03:11:42.178Z,1.27
2023-02-28T03:14:38.802Z,1.20
2023-02-28T03:17:34.900Z,1.21
2023-02-28T03:20:34.159Z,1.23
2023-02-28T03:23:08.371Z,1.31
2023-02-28T03:25:57.512Z,1.21
2023-02-28T03:28:46.145Z,1.27
2023-02-28T03:31:18.488Z,1.23
2023-02-28T03:33:57.601Z,1.24
2023-02-28T03:36:32.179Z,1.19
2023-02-28T03:39:07.020Z,1.16
2023-02-28T03:42:11.341Z,1.14
2023-02-28T03:44:48.160Z,1.12
2023-02-28T03:47:25.898Z,1.13
2023-02-28T03:49:59.052Z,1.14
2023-02-28T03:52:30.794Z,1.13
2023-02-28T03:55:07.917Z,1.04
2023-02-28T03:57:45.465Z,1.11
2023-02-28T04:00:21.983Z,1.12
2023-02-28T04:02:53.978Z,1.11
2023-02-28T04:05:26.534Z,1.16
2023-02-28T04:08:08.169Z,1.25
2023-02-28T04:10:38.781Z,1.21
2023-02-28T04:13:10.527Z,1.24
2023-02-28T04:15:38.989Z,1.28
2023-02-28T04:18:11.956Z,1.35
2023-02-28T04:20:40.039Z,1.41
2023-02-28T04:23:11.026Z,1.40
2023-02-28T04:25:41.871Z,1.47
2023-02-28T04:28:12.826Z,1.51
2023-02-28T04:30:42.615Z,1.52
2023-02-28T04:33:10.757Z,1.52
2023-02-28T04:35:39.990Z,1.43
2023-02-28T04:38:08.528Z,1.46
2023-02-28T04:40:37.609Z,1.49
2023-02-28T04:43:17.036Z,1.50
2023-02-28T04:45:46.477Z,1.61
2023-02-28T04:48:15.190Z,1.60
2023-02-28T04:50:43.047Z,1.65
2023-02-28T04:53:11.483Z,1.66
2023-02-28T04:55:41.515Z,1.63
2023-02-28T04:58:10.101Z,1.64
2023-02-28T05:00:39.521Z,1.61
2023-02-28T05:03:07.973Z,1.55
2023-02-28T05:05:41.993Z,1.62
2023-02-28T05:08:10.855Z,1.70
2023-02-28T05:10:43.076Z,1.73
2023-02-28T05:13:14.670Z,1.72
2023-02-28T05:15:42.701Z,1.75
2023-02-28T05:18:13.020Z,1.69
2023-02-28T05:20:42.102Z,1.76
2023-02-28T05:23:12.980Z,1.76
2023-02-28T05:25:42.578Z,1.81
2023-02-28T05:28:11.404Z,1.81
2023-02-28T05:30:42.983Z,1.84
2023-02-28T05:33:13.485Z,1.91
2023-02-28T05:35:45.644Z,2.03
2023-02-28T05:38:14.379Z,2.11
2023-02-28T05:40:42.247Z,2.10
2023-02-28T05:43:13.591Z,2.12
2023-02-28T05:45:41.658Z,2.16
2023-02-28T05:48:09.899Z,2.18
2023-02-28T05:50:37.936Z,2.18
2023-02-28T05:53:06.529Z,2.35
2023-02-28T05:55:34.867Z,2.37
2023-02-28T05:58:03.312Z,2.52
2023-02-28T06:00:32.114Z,2.63
2023-02-28T06:03:03.471Z,2.69
2023-02-28T06:05:33.028Z,2.75
2023-02-28T06:08:01.428Z,2.74
2023-02-28T06:10:33.229Z,2.67
2023-02-28T06:13:05.545Z,2.63
2023-02-28T06:15:33.941Z,2.57
2023-02-28T06:18:06.122Z,2.54
2023-02-28T06:20:36.599Z,2.70
2023-02-28T06:23:07.125Z,2.73
2023-02-28T06:25:36.398Z,2.78
2023-02-28T06:28:07.515Z,2.80
2023-02-28T06:30:35.283Z,2.85
2023-02-28T06:33:06.350Z,3.12
2023-02-28T06:35:34.972Z,3.50
2023-02-28T06:38:03.403Z,3.61
2023-02-28T06:40:35.579Z,3.78
2023-02-28T06:43:04.567Z,3.66
2023-02-28T06:45:32.963Z,3.32
2023-02-28T06:48:04.119Z,3.14
2023-02-28T06:50:34.759Z,3.14
2023-02-28T06:53:02.993Z,3.20
2023-02-28T06:55:31.408Z,3.11
2023-02-28T06:58:00.332Z,2.95
2023-02-28T07:00:28.726Z,2.99
2023-02-28T07:02:57.112Z,2.95
2023-02-28T07:05:25.396Z,2.98
2023-02-28T07:07:55.910Z,2.97
2023-02-28T07:10:24.215Z,3.02
2023-02-28T07:12:53.510Z,3.08
2023-02-28T07:15:22.136Z,3.24
2023-02-28T07:17:50.163Z,3.08
2023-02-28T07:20:21.367Z,3.22
2023-02-28T07:22:56.878Z,3.24
2023-02-28T07:25:29.067Z,3.19
2023-02-28T07:28:01.866Z,3.00
2023-02-28T07:30:30.521Z,2.86
2023-02-28T07:32:59.717Z,2.93
2023-02-28T07:35:27.729Z,3.01
2023-02-28T07:38:00.262Z,3.14
2023-02-28T07:40:28.636Z,3.27
2023-02-28T07:42:57.376Z,3.09
2023-02-28T07:45:25.565Z,2.89
2023-02-28T07:47:53.720Z,2.63
2023-02-28T07:50:21.880Z,2.67
2023-02-28T07:52:50.725Z,2.78
2023-02-28T07:55:19.261Z,2.80
2023-02-28T07:57:50.719Z,2.64
2023-02-28T08:00:19.021Z,2.61
2023-02-28T08:02:47.705Z,2.90
2023-02-28T08:05:21.975Z,3.19
2023-02-28T08:07:54.937Z,3.36
2023-02-28T08:10:23.197Z,3.36
2023-02-28T08:12:52.686Z,3.51
2023-02-28T08:15:21.080Z,3.56
2023-02-28T08:17:49.937Z,3.46
2023-02-28T08:20:18.107Z,3.52
2023-02-28T08:22:48.116Z,3.62
2023-02-28T08:25:16.649Z,3.83
2023-02-28T08:27:44.567Z,3.88
2023-02-28T08:30:15.408Z,3.77
2023-02-28T08:32:44.376Z,3.75
2023-02-28T08:35:12.702Z,3.73
2023-02-28T08:37:41.279Z,3.82
2023-02-28T08:40:11.832Z,3.91
2023-02-28T08:42:40.166Z,3.89
2023-02-28T08:45:08.483Z,3.97
2023-02-28T08:47:40.503Z,4.06
2023-02-28T08:50:11.059Z,3.87
2023-02-28T08:52:40.164Z,4.18
2023-02-28T08:55:09.437Z,4.14
2023-02-28T08:57:39.039Z,3.82
2023-02-28T09:00:14.963Z,3.73
2023-02-28T09:02:43.993Z,3.52
2023-02-28T09:05:14.510Z,3.60
2023-02-28T09:07:42.775Z,3.94
2023-02-28T09:10:12.607Z,3.97
2023-02-28T09:12:41.439Z,4.05
2023-02-28T09:15:11.133Z,4.07
2023-02-28T09:17:39.271Z,3.97
2023-02-28T09:20:08.414Z,4.12
2023-02-28T09:22:40.104Z,4.18
2023-02-28T09:25:08.633Z,4.36
2023-02-28T09:27:38.749Z,4.55
2023-02-28T09:30:07.616Z,4.60
2023-02-28T09:32:37.816Z,4.93
2023-02-28T09:35:07.062Z,5.09
2023-02-28T09:37:36.093Z,4.76
2023-02-28T09:40:05.139Z,4.81
2023-02-28T09:42:35.332Z,4.78
2023-02-28T09:45:09.458Z,4.77
2023-02-28T09:47:46.601Z,4.88
2023-02-28T09:50:24.650Z,4.91
2023-02-28T09:52:52.594Z,4.92
2023-02-28T09:55:41.520Z,4.98
2023-02-28T09:58:37.466Z,5.07
2023-02-28T10:01:23.476Z,4.90
2023-02-28T10:03:58.610Z,4.79
2023-02-28T10:06:43.509Z,4.69
2023-02-28T10:09:22.099Z,4.44
2023-02-28T10:11:53.651Z,4.43
2023-02-28T10:14:25.677Z,4.51
2023-02-28T10:17:03.496Z,4.36
2023-02-28T10:19:55.333Z,4.06
2023-02-28T10:22:41.848Z,3.87
2023-02-28T10:25:23.034Z,3.90
2023-02-28T10:27:58.082Z,3.91
2023-02-28T10:30:26.273Z,4.09
2023-02-28T10:32:55.758Z,4.05
2023-02-28T10:35:26.616Z,3.78
2023-02-28T10:37:59.421Z,3.97
2023-02-28T10:40:36.986Z,4.12
2023-02-28T10:43:24.835Z,4.14
2023-02-28T10:46:27.859Z,4.17
2023-02-28T10:49:05.747Z,4.10
2023-02-28T10:51:44.703Z,3.92
2023-02-28T10:54:24.253Z,3.82
2023-02-28T10:57:17.421Z,3.95
2023-02-28T10:59:45.738Z,3.71
2023-02-28T11:02:39.385Z,3.71
2023-02-28T11:05:28.025Z,3.58
2023-02-28T11:08:06.839Z,3.73
2023-02-28T11:10:41.162Z,3.83
2023-02-28T11:13:20.748Z,3.89
2023-02-28T11:15:55.351Z,3.85
2023-02-28T11:18:36.119Z,4.01
2023-02-28T11:21:05.804Z,4.08
2023-02-28T11:23:37.846Z,4.25
2023-02-28T11:26:06.746Z,4.48
2023-02-28T11:28:40.870Z,4.60
2023-02-28T11:31:23.933Z,4.25
2023-02-28T11:33:55.112Z,4.30
2023-02-28T11:36:28.609Z,4.15
2023-02-28T11:39:04.438Z,4.12
2023-02-28T11:41:49.045Z,4.12
2023-02-28T11:44:29.447Z,4.06
2023-02-28T11:47:14.160Z,4.00
2023-02-28T11:49:52.128Z,4.06
2023-02-28T11:52:32.113Z,4.18
2023-02-28T11:55:10.314Z,4.15
2023-02-28T11:58:04.531Z,4.17
2023-02-28T12:00:35.666Z,3.96
2023-02-28T12:03:25.586Z,4.08
2023-02-28T12:06:11.406Z,4.12
2023-02-28T12:08:57.951Z,4.12
2023-02-28T12:11:36.656Z,4.28
2023-02-28T12:14:19.793Z,4.44
2023-02-28T12:16:52.478Z,4.54
2023-02-28T12:19:21.718Z,4.60
2023-02-28T12:22:19.159Z,4.73
2023-02-28T12:24:52.852Z,4.86
2023-02-28T12:27:25.297Z,4.78
2023-02-28T12:30:00.415Z,4.73
2023-02-28T12:32:37.091Z,4.65
2023-02-28T12:35:08.533Z,4.66
2023-02-28T12:37:46.381Z,4.54
2023-02-28T12:40:18.963Z,4.29
2023-02-28T12:42:51.086Z,4.27
2023-02-28T12:45:25.683Z,4.22
2023-02-28T12:48:02.138Z,4.22
2023-02-28T12:50:35.363Z,3.97
2023-02-28T12:53:24.722Z,3.91
2023-02-28T12:56:21.660Z,4.06
2023-02-28T12:58:53.186Z,4.11
2023-02-28T13:01:31.452Z,4.19
2023-02-28T13:04:37.423Z,4.09
2023-02-28T13:07:11.640Z,4.05
2023-02-28T13:09:41.141Z,3.85
2023-02-28T13:12:16.508Z,3.78
2023-02-28T13:14:47.918Z,3.55
2023-02-28T13:17:23.287Z,3.41
2023-02-28T13:19:55.376Z,3.32
2023-02-28T13:22:27.226Z,3.19
2023-02-28T13:24:59.162Z,2.98
2023-02-28T13:28:02.200Z,2.96
2023-02-28T13:31:00.770Z,3.20
2023-02-28T13:33:36.259Z,3.26
2023-02-28T13:36:19.703Z,3.07
2023-02-28T13:38:49.237Z,2.86
2023-02-28T13:41:32.842Z,2.75
2023-02-28T13:44:04.984Z,2.56
2023-02-28T13:46:36.223Z,2.60
2023-02-28T13:49:33.614Z,2.68
2023-02-28T13:52:07.070Z,2.73
2023-02-28T13:54:57.429Z,2.67
2023-02-28T13:57:56.392Z,2.59
2023-02-28T14:00:59.796Z,2.59
2023-02-28T14:03:47.040Z,2.46
2023-02-28T14:06:20.542Z,2.36
2023-02-28T14:08:57.667Z,2.46
2023-02-28T14:11:37.123Z,2.50
2023-02-28T14:14:07.942Z,2.50
2023-02-28T14:16:45.850Z,2.45
2023-02-28T14:19:29.091Z,2.30
2023-02-28T14:22:10.950Z,2.31
2023-02-28T14:25:17.541Z,2.22
2023-02-28T14:28:27.234Z,2.09
2023-02-28T14:31:05.010Z,1.92
2023-02-28T14:33:44.114Z,1.91
2023-02-28T14:36:20.700Z,1.87
2023-02-28T14:39:06.607Z,1.84
2023-02-28T14:41:40.331Z,1.65
2023-02-28T14:44:19.754Z,1.52
2023-02-28T14:46:51.835Z,1.44
2023-02-28T14:49:28.092Z,1.31
2023-02-28T14:52:18.560Z,1.17
2023-02-28T14:54:46.635Z,1.16
2023-02-28T14:57:32.662Z,1.22
2023-02-28T15:00:15.245Z,1.29
2023-02-28T15:02:44.611Z,1.27
2023-02-28T15:05:18.291Z,1.18
2023-02-28T15:07:47.691Z,1.09
2023-02-28T15:10:24.914Z,0.95
2023-02-28T15:13:09.580Z,0.95
2023-02-28T15:16:04.464Z,0.91
2023-02-28T15:18:37.883Z,0.95
2023-02-28T15:21:13.149Z,1.00
2023-02-28T15:23:43.965Z,1.07
2023-02-28T15:26:22.013Z,1.08
2023-02-28T15:28:59.969Z,1.10
2023-02-28T15:31:55.354Z,1.13
2023-02-28T15:34:45.341Z,1.19
2023-02-28T15:37:32.016Z,1.14
2023-02-28T15:40:11.901Z,1.10
2023-02-28T15:42:45.594Z,1.03
2023-02-28T15:45:39.608Z,0.93
2023-02-28T15:48:29.537Z,0.92
2023-02-28T15:51:04.226Z,1.04
2023-02-28T15:54:03.105Z,1.08
2023-02-28T15:56:48.343Z,1.13
2023-02-28T15:59:22.984Z,1.16
2023-02-28T16:02:14.918Z,1.18
2023-02-28T16:05:12.250Z,1.22
2023-02-28T16:07:44.956Z,1.24
2023-02-28T16:10:15.840Z,1.21
2023-02-28T16:12:44.408Z,1.23
2023-02-28T16:15:27.652Z,1.16
2023-02-28T16:17:57.428Z,1.17
2023-02-28T16:20:32.498Z,1.21
2023-02-28T16:23:02.746Z,1.22
2023-02-28T16:25:41.878Z,1.15
2023-02-28T16:28:32.665Z,1.01
2023-02-28T16:31:04.004Z,0.99
2023-02-28T16:33:34.224Z,0.96
2023-02-28T16:36:03.190Z,0.99
2023-02-28T16:38:31.667Z,1.01
2023-02-28T16:41:01.409Z,0.98
2023-02-28T16:43:30.036Z,0.96
2023-02-28T16:46:02.841Z,0.93
2023-02-28T16:48:32.191Z,0.87
2023-02-28T16:51:05.913Z,0.85
2023-02-28T16:53:34.243Z,0.87
2023-02-28T16:56:03.587Z,0.85
2023-02-28T16:58:31.977Z,0.84
2023-02-28T17:01:05.987Z,0.78
2023-02-28T17:03:34.513Z,0.75
2023-02-28T17:06:02.873Z,0.57
2023-02-28T17:08:34.315Z,0.48
2023-02-28T17:11:06.397Z,0.41
2023-02-28T17:13:40.447Z,0.38
2023-02-28T17:16:25.182Z,0.43
2023-02-28T17:18:54.792Z,0.36
2023-02-28T17:21:23.011Z,0.36
2023-02-28T17:23:51.796Z,0.39
2023-02-28T17:26:22.101Z,0.42
2023-02-28T17:28:52.300Z,0.34
2023-02-28T17:31:20.894Z,0.32
2023-02-28T17:33:50.989Z,0.24
2023-02-28T17:36:28.634Z,0.23
2023-02-28T17:38:56.913Z,0.14
2023-02-28T17:41:25.697Z,0.09
2023-02-28T17:43:54.925Z,0.16
2023-02-28T17:46:25.608Z,0.22
2023-02-28T17:48:54.819Z,0.29
2023-02-28T17:51:26.195Z,0.30
2023-02-28T17:53:55.691Z,0.29
2023-02-28T17:56:26.173Z,0.29
2023-02-28T17:58:58.668Z,0.30
2023-02-28T18:01:36.802Z,0.34
2023-02-28T18:04:06.764Z,0.35
2023-02-28T18:06:47.606Z,0.33
2023-02-28T18:09:16.851Z,0.35
2023-02-28T18:11:50.436Z,0.37
2023-02-28T18:14:20.543Z,0.31
2023-02-28T18:16:51.371Z,0.39
2023-02-28T18:19:20.176Z,0.42
2023-02-28T18:21:51.097Z,0.44
2023-02-28T18:24:21.315Z,0.38
2023-02-28T18:26:49.565Z,0.41
2023-02-28T18:29:23.075Z,0.37
2023-02-28T18:31:52.376Z,0.32
2023-02-28T18:34:22.921Z,0.33
2023-02-28T18:36:53.435Z,0.31
2023-02-28T18:39:21.658Z,0.35
2023-02-28T18:41:49.883Z,0.40
2023-02-28T18:44:20.644Z,0.40
2023-02-28T18:46:52.209Z,0.43
2023-02-28T18:49:24.720Z,0.46
2023-02-28T18:51:55.619Z,0.42
2023-02-28T18:54:24.128Z,0.44
2023-02-28T18:56:54.337Z,0.35
2023-02-28T18:59:23.110Z,0.31
2023-02-28T19:01:51.925Z,0.24
2023-02-28T19:04:19.945Z,0.15
2023-02-28T19:06:48.112Z,0.01
2023-02-28T19:09:16.502Z,-0.14
2023-02-28T19:11:44.745Z,-0.23
2023-02-28T19:14:13.278Z,-0.27
2023-02-28T19:16:45.621Z,-0.30
2023-02-28T19:19:14.374Z,-0.35
2023-02-28T19:21:43.632Z,-0.47
2023-02-28T19:24:12.639Z,-0.53
2023-02-28T19:26:41.353Z,-0.61
2023-02-28T19:29:09.767Z,-0.68
2023-02-28T19:31:40.661Z,-0.70
2023-02-28T19:34:10.195Z,-0.73
2023-02-28T19:36:38.234Z,-0.81
2023-02-28T19:39:06.743Z,-0.83
2023-02-28T19:41:36.277Z,-0.86
2023-02-28T19:44:04.989Z,-0.91
2023-02-28T19:46:38.050Z,-1.01
2023-02-28T19:49:06.411Z,-1.01
2023-02-28T19:51:39.411Z,-1.07
2023-02-28T19:54:08.588Z,-1.13
2023-02-28T19:56:38.240Z,-1.16
2023-02-28T19:59:12.996Z,-1.17
2023-02-28T20:01:49.851Z,-1.22
2023-02-28T20:04:20.963Z,-1.19
2023-02-28T20:06:56.313Z,-1.26
2023-02-28T20:09:24.738Z,-1.29
2023-02-28T20:11:59.737Z,-1.30
2023-02-28T20:14:31.382Z,-1.21
2023-02-28T20:16:59.826Z,-1.08
2023-02-28T20:19:28.508Z,-0.89
2023-02-28T20:21:58.427Z,-0.68
2023-02-28T20:24:26.651Z,-0.50
2023-02-28T20:26:55.657Z,-0.39
2023-02-28T20:29:24.407Z,-0.32
2023-02-28T20:31:55.646Z,-0.26
2023-02-28T20:34:23.987Z,-0.19
2023-02-28T20:36:56.972Z,-0.16
2023-02-28T20:39:25.513Z,-0.10
2023-02-28T20:41:53.730Z,-0.06
2023-02-28T20:44:24.603Z,-0.01
2023-02-28T20:46:55.468Z,0.03
2023-02-28T20:49:23.977Z,0.06
2023-02-28T20:51:52.852Z,0.08
2023-02-28T20:54:23.680Z,0.10
2023-02-28T20:56:52.168Z,0.09
2023-02-28T20:59:22.707Z,0.11
2023-02-28T21:01:56.540Z,0.10
2023-02-28T21:04:25.137Z,0.14
2023-02-28T21:06:54.074Z,0.19
2023-02-28T21:09:24.912Z,0.14
2023-02-28T21:11:56.452Z,0.18
2023-02-28T21:14:32.750Z,0.15
2023-02-28T21:17:01.319Z,0.14
2023-02-28T21:19:30.760Z,0.14
2023-02-28T21:21:59.572Z,0.10
2023-02-28T21:24:27.766Z,0.07
2023-02-28T21:26:57.930Z,0.04
2023-02-28T21:29:26.200Z,-0.16
2023-02-28T21:31:54.643Z,-0.32
2023-02-28T21:34:25.005Z,-0.58
2023-02-28T21:36:53.621Z,-0.78
2023-02-28T21:39:27.478Z,-0.96
2023-02-28T21:41:57.143Z,-1.04
2023-02-28T21:44:28.485Z,-1.12
2023-02-28T21:47:01.258Z,-1.16
2023-02-28T21:49:30.074Z,-1.21
2023-02-28T21:52:02.069Z,-1.31
2023-02-28T21:54:31.057Z,-1.35
2023-02-28T21:57:06.636Z,-1.34
2023-02-28T21:59:45.575Z,-1.42
2023-02-28T22:02:13.882Z,-1.46
2023-02-28T22:04:44.496Z,-1.55
2023-02-28T22:07:13.060Z,-1.63
2023-02-28T22:09:43.087Z,-1.70
2023-02-28T22:12:11.211Z,-1.77
2023-02-28T22:14:42.239Z,-1.77
2023-02-28T22:17:11.112Z,-1.82
2023-02-28T22:19:40.324Z,-1.82
2023-02-28T22:22:08.601Z,-1.90
2023-02-28T22:24:37.654Z,-1.99
2023-02-28T22:27:06.021Z,-2.06
2023-02-28T22:29:34.518Z,-2.09
2023-02-28T22:32:02.758Z,-2.03
2023-02-28T22:34:31.340Z,-2.08
2023-02-28T22:37:00.661Z,-2.07
2023-02-28T22:39:30.776Z,-2.14
2023-02-28T22:42:02.148Z,-2.13
2023-02-28T22:44:31.490Z,-2.16
2023-02-28T22:47:06.503Z,-2.17
2023-02-28T22:49:36.920Z,-2.20
2023-02-28T22:52:05.768Z,-2.29
2023-02-28T22:54:34.024Z,-2.36
2023-02-28T22:57:03.872Z,-2.31
2023-02-28T22:59:32.304Z,-2.31
2023-02-28T23:02:00.350Z,-2.26
2023-02-28T23:04:28.945Z,-2.16
2023-02-28T23:07:00.203Z,-2.17
2023-02-28T23:09:29.558Z,-2.20
2023-02-28T23:12:01.477Z,-2.15
2023-02-28T23:14:29.734Z,-2.17
2023-02-28T23:16:59.004Z,-2.11
2023-02-28T23:19:32.018Z,-2.13
2023-02-28T23:22:01.880Z,-2.19
2023-02-28T23:24:32.744Z,-2.20
2023-02-28T23:27:04.901Z,-2.21
2023-02-28T23:29:34.167Z,-2.12
2023-02-28T23:32:03.113Z,-2.20
2023-02-28T23:34:32.302Z,-2.23
2023-02-28T23:37:02.243Z,-2.20
2023-02-28T23:39:33.818Z,-2.24
2023-02-28T23:42:06.610Z,-2.25
2023-02-28T23:44:35.645Z,-2.25
2023-02-28T23:47:03.820Z,-2.22
2023-02-28T23:49:31.977Z,-2.24
2023-02-28T23:52:03.072Z,-2.18
2023-02-28T23:54:32.331Z,-2.19
2023-02-28T23:57:00.577Z,-2.17
2023-02-28T23:59:29.996Z,-2.18
